sensor_id;sensor_type;location;lat;lon;timestamp;P1;P2;P0
62054;PMS5003;48653;51.742;-1.256;2024-03-02T00:03:44;2;2;
62054;PMS5003;48653;51.742;-1.256;2024-03-02T00:06:08;3;2;
62054;PMS5003;48653;51.742;-1.256;2024-03-02T00:08:34;3;1;
62054;PMS5003;48653;51.742;-1.256;2024-03-02T00:10:59;3;2;
62054;PMS5003;48653;51.742;-1.256;2024-03-02T00:13:24;1;1;
62054;PMS5003;48653;51.742;-1.256;2024-03-02T00:15:51;3;3;
62054;PMS5003;48653;51.742;-1.256;2024-03-02T00:18:16;4;2;
62054;PMS5003;48653;51.742;-1.256;2024-03-02T00:20:39;4;2;
62054;PMS5003;48653;51.742;-1.256;2024-03-02T00:23:05;4;2;
62054;PMS5003;48653;51.742;-1.256;2024-03-02T00:27:55;7;2;
62054;PMS5003;48653;51.742;-1.256;2024-03-02T00:32:45;4;3;
62054;PMS5003;48653;51.742;-1.256;2024-03-02T00:35:12;4;3;
62054;PMS5003;48653;51.742;-1.256;2024-03-02T00:37:35;3;2;
62054;PMS5003;48653;51.742;-1.256;2024-03-02T00:40:01;3;3;
62054;PMS5003;48653;51.742;-1.256;2024-03-02T00:42:25;5;2;
62054;PMS5003;48653;51.742;-1.256;2024-03-02T00:44:51;2;2;
62054;PMS5003;48653;51.742;-1.256;2024-03-02T00:47:16;4;2;
62054;PMS5003;48653;51.742;-1.256;2024-03-02T00:49:41;5;4;
62054;PMS5003;48653;51.742;-1.256;2024-03-02T00:52:07;3;3;
62054;PMS5003;48653;51.742;-1.256;2024-03-02T00:54:32;2;2;
62054;PMS5003;48653;51.742;-1.256;2024-03-02T00:56:57;5;4;
62054;PMS5003;48653;51.742;-1.256;2024-03-02T00:59:22;3;3;
62054;PMS5003;48653;51.742;-1.256;2024-03-02T01:01:47;3;2;
62054;PMS5003;48653;51.742;-1.256;2024-03-02T01:04:14;5;3;
62054;PMS5003;48653;51.742;-1.256;2024-03-02T01:06:37;5;4;
62054;PMS5003;48653;51.742;-1.256;2024-03-02T01:09:03;4;4;
62054;PMS5003;48653;51.742;-1.256;2024-03-02T01:11:28;6;4;
62054;PMS5003;48653;51.742;-1.256;2024-03-02T01:13:53;5;3;
62054;PMS5003;48653;51.742;-1.256;2024-03-02T01:16:18;5;4;
62054;PMS5003;48653;51.742;-1.256;2024-03-02T01:18:43;6;5;
62054;PMS5003;48653;51.742;-1.256;2024-03-02T01:21:08;5;2;
62054;PMS5003;48653;51.742;-1.256;2024-03-02T01:23:33;7;2;
62054;PMS5003;48653;51.742;-1.256;2024-03-02T01:25:59;3;3;
62054;PMS5003;48653;51.742;-1.256;2024-03-02T01:28:24;4;2;
62054;PMS5003;48653;51.742;-1.256;2024-03-02T01:30:49;4;4;
62054;PMS5003;48653;51.742;-1.256;2024-03-02T01:33:14;4;1;
62054;PMS5003;48653;51.742;-1.256;2024-03-02T01:35:39;4;3;
62054;PMS5003;48653;51.742;-1.256;2024-03-02T01:38:04;3;3;
62054;PMS5003;48653;51.742;-1.256;2024-03-02T01:40:29;3;3;
62054;PMS5003;48653;51.742;-1.256;2024-03-02T01:42:55;5;2;
62054;PMS5003;48653;51.742;-1.256;2024-03-02T01:45:20;2;2;
62054;PMS5003;48653;51.742;-1.256;2024-03-02T01:47:46;7;6;
62054;PMS5003;48653;51.742;-1.256;2024-03-02T01:50:11;4;1;
62054;PMS5003;48653;51.742;-1.256;2024-03-02T01:52:36;4;3;
62054;PMS5003;48653;51.742;-1.256;2024-03-02T01:55:01;4;2;
62054;PMS5003;48653;51.742;-1.256;2024-03-02T01:57:26;3;3;
62054;PMS5003;48653;51.742;-1.256;2024-03-02T01:59:51;3;1;
62054;PMS5003;48653;51.742;-1.256;2024-03-02T02:02:17;1;1;
62054;PMS5003;48653;51.742;-1.256;2024-03-02T02:04:42;1;1;
62054;PMS5003;48653;51.742;-1.256;2024-03-02T02:07:07;3;3;
62054;PMS5003;48653;51.742;-1.256;2024-03-02T02:09:32;3;3;
62054;PMS5003;48653;51.742;-1.256;2024-03-02T02:11:57;3;2;
62054;PMS5003;48653;51.742;-1.256;2024-03-02T02:14:22;2;2;
62054;PMS5003;48653;51.742;-1.256;2024-03-02T02:16:47;1;0;
62054;PMS5003;48653;51.742;-1.256;2024-03-02T02:19:13;1;1;
62054;PMS5003;48653;51.742;-1.256;2024-03-02T02:21:38;2;2;
62054;PMS5003;48653;51.742;-1.256;2024-03-02T02:24:03;2;2;
62054;PMS5003;48653;51.742;-1.256;2024-03-02T02:26:28;2;2;
62054;PMS5003;48653;51.742;-1.256;2024-03-02T02:28:53;1;1;
62054;PMS5003;48653;51.742;-1.256;2024-03-02T02:31:18;2;2;
62054;PMS5003;48653;51.742;-1.256;2024-03-02T02:33:43;3;1;
62054;PMS5003;48653;51.742;-1.256;2024-03-02T02:36:08;1;1;
62054;PMS5003;48653;51.742;-1.256;2024-03-02T02:38:34;0;0;
62054;PMS5003;48653;51.742;-1.256;2024-03-02T02:40:59;2;0;
62054;PMS5003;48653;51.742;-1.256;2024-03-02T02:43:24;4;4;
62054;PMS5003;48653;51.742;-1.256;2024-03-02T02:45:49;0;0;
62054;PMS5003;48653;51.742;-1.256;2024-03-02T02:48:16;2;2;
62054;PMS5003;48653;51.742;-1.256;2024-03-02T02:50:41;0;0;
62054;PMS5003;48653;51.742;-1.256;2024-03-02T02:53:05;1;0;
62054;PMS5003;48653;51.742;-1.256;2024-03-02T02:55:30;4;2;
62054;PMS5003;48653;51.742;-1.256;2024-03-02T02:57:55;1;1;
62054;PMS5003;48653;51.742;-1.256;2024-03-02T03:00:21;2;2;
62054;PMS5003;48653;51.742;-1.256;2024-03-02T03:02:46;1;1;
62054;PMS5003;48653;51.742;-1.256;2024-03-02T03:05:11;0;0;
62054;PMS5003;48653;51.742;-1.256;2024-03-02T03:07:36;1;1;
62054;PMS5003;48653;51.742;-1.256;2024-03-02T03:10:01;2;2;
62054;PMS5003;48653;51.742;-1.256;2024-03-02T03:12:26;1;0;
62054;PMS5003;48653;51.742;-1.256;2024-03-02T03:14:52;0;0;
62054;PMS5003;48653;51.742;-1.256;2024-03-02T03:17:17;0;0;
62054;PMS5003;48653;51.742;-1.256;2024-03-02T03:19:42;0;0;
62054;PMS5003;48653;51.742;-1.256;2024-03-02T03:22:07;0;0;
62054;PMS5003;48653;51.742;-1.256;2024-03-02T03:24:32;0;0;
62054;PMS5003;48653;51.742;-1.256;2024-03-02T03:26:58;0;0;
62054;PMS5003;48653;51.742;-1.256;2024-03-02T03:29:23;1;0;
62054;PMS5003;48653;51.742;-1.256;2024-03-02T03:31:48;0;0;
62054;PMS5003;48653;51.742;-1.256;2024-03-02T03:34:13;0;0;
62054;PMS5003;48653;51.742;-1.256;2024-03-02T03:36:38;0;0;
62054;PMS5003;48653;51.742;-1.256;2024-03-02T03:39:03;0;0;
62054;PMS5003;48653;51.742;-1.256;2024-03-02T03:41:28;0;0;
62054;PMS5003;48653;51.742;-1.256;2024-03-02T03:43:54;0;0;
62054;PMS5003;48653;51.742;-1.256;2024-03-02T03:46:19;1;0;
62054;PMS5003;48653;51.742;-1.256;2024-03-02T03:48:44;0;0;
62054;PMS5003;48653;51.742;-1.256;2024-03-02T03:51:09;0;0;
62054;PMS5003;48653;51.742;-1.256;2024-03-02T03:53:34;0;0;
62054;PMS5003;48653;51.742;-1.256;2024-03-02T03:55:59;0;0;
62054;PMS5003;48653;51.742;-1.256;2024-03-02T03:58:24;1;0;
62054;PMS5003;48653;51.742;-1.256;2024-03-02T04:00:49;0;0;
62054;PMS5003;48653;51.742;-1.256;2024-03-02T04:03:15;0;0;
62054;PMS5003;48653;51.742;-1.256;2024-03-02T04:05:40;0;0;
62054;PMS5003;48653;51.742;-1.256;2024-03-02T04:08:05;1;0;
62054;PMS5003;48653;51.742;-1.256;2024-03-02T04:10:30;0;0;
62054;PMS5003;48653;51.742;-1.256;2024-03-02T04:12:55;0;0;
62054;PMS5003;48653;51.742;-1.256;2024-03-02T04:15:20;0;0;
62054;PMS5003;48653;51.742;-1.256;2024-03-02T04:17:45;0;0;
62054;PMS5003;48653;51.742;-1.256;2024-03-02T04:20:11;1;0;
62054;PMS5003;48653;51.742;-1.256;2024-03-02T04:22:35;2;1;
62054;PMS5003;48653;51.742;-1.256;2024-03-02T04:25:01;0;0;
62054;PMS5003;48653;51.742;-1.256;2024-03-02T04:27:26;0;0;
62054;PMS5003;48653;51.742;-1.256;2024-03-02T04:29:51;0;0;
62054;PMS5003;48653;51.742;-1.256;2024-03-02T04:32:16;0;0;
62054;PMS5003;48653;51.742;-1.256;2024-03-02T04:34:41;0;0;
62054;PMS5003;48653;51.742;-1.256;2024-03-02T04:37:06;0;0;
62054;PMS5003;48653;51.742;-1.256;2024-03-02T04:39:31;0;0;
62054;PMS5003;48653;51.742;-1.256;2024-03-02T04:41:56;1;0;
62054;PMS5003;48653;51.742;-1.256;2024-03-02T04:44:26;1;0;
62054;PMS5003;48653;51.742;-1.256;2024-03-02T04:46:47;2;1;
62054;PMS5003;48653;51.742;-1.256;2024-03-02T04:49:12;3;0;
62054;PMS5003;48653;51.742;-1.256;2024-03-02T04:51:37;1;1;
62054;PMS5003;48653;51.742;-1.256;2024-03-02T04:54:02;2;1;
62054;PMS5003;48653;51.742;-1.256;2024-03-02T04:56:27;1;1;
62054;PMS5003;48653;51.742;-1.256;2024-03-02T04:58:52;1;1;
62054;PMS5003;48653;51.742;-1.256;2024-03-02T05:01:17;4;1;
62054;PMS5003;48653;51.742;-1.256;2024-03-02T05:03:42;3;1;
62054;PMS5003;48653;51.742;-1.256;2024-03-02T05:06:08;1;1;
62054;PMS5003;48653;51.742;-1.256;2024-03-02T05:08:33;2;1;
62054;PMS5003;48653;51.742;-1.256;2024-03-02T05:11:00;1;0;
62054;PMS5003;48653;51.742;-1.256;2024-03-02T05:13:26;3;1;
62054;PMS5003;48653;51.742;-1.256;2024-03-02T05:15:49;2;2;
62054;PMS5003;48653;51.742;-1.256;2024-03-02T05:18:14;2;2;
62054;PMS5003;48653;51.742;-1.256;2024-03-02T05:20:39;5;1;
62054;PMS5003;48653;51.742;-1.256;2024-03-02T05:23:05;5;3;
62054;PMS5003;48653;51.742;-1.256;2024-03-02T05:25:30;1;1;
62054;PMS5003;48653;51.742;-1.256;2024-03-02T05:27:55;2;2;
62054;PMS5003;48653;51.742;-1.256;2024-03-02T05:30:20;3;0;
62054;PMS5003;48653;51.742;-1.256;2024-03-02T05:32:46;4;2;
62054;PMS5003;48653;51.742;-1.256;2024-03-02T05:35:11;4;1;
62054;PMS5003;48653;51.742;-1.256;2024-03-02T05:37:36;1;0;
62054;PMS5003;48653;51.742;-1.256;2024-03-02T05:40:01;2;0;
62054;PMS5003;48653;51.742;-1.256;2024-03-02T05:42:27;8;5;
62054;PMS5003;48653;51.742;-1.256;2024-03-02T05:44:52;4;3;
62054;PMS5003;48653;51.742;-1.256;2024-03-02T05:47:17;3;1;
62054;PMS5003;48653;51.742;-1.256;2024-03-02T05:49:42;0;0;
62054;PMS5003;48653;51.742;-1.256;2024-03-02T05:52:08;3;1;
62054;PMS5003;48653;51.742;-1.256;2024-03-02T05:54:33;2;2;
62054;PMS5003;48653;51.742;-1.256;2024-03-02T05:56:58;7;2;
62054;PMS5003;48653;51.742;-1.256;2024-03-02T05:59:23;2;1;
62054;PMS5003;48653;51.742;-1.256;2024-03-02T06:01:48;0;0;
62054;PMS5003;48653;51.742;-1.256;2024-03-02T06:04:13;1;0;
62054;PMS5003;48653;51.742;-1.256;2024-03-02T06:06:38;2;0;
62054;PMS5003;48653;51.742;-1.256;2024-03-02T06:09:04;3;2;
62054;PMS5003;48653;51.742;-1.256;2024-03-02T06:11:29;0;0;
62054;PMS5003;48653;51.742;-1.256;2024-03-02T06:13:54;0;0;
62054;PMS5003;48653;51.742;-1.256;2024-03-02T06:16:20;1;0;
62054;PMS5003;48653;51.742;-1.256;2024-03-02T06:18:44;2;1;
62054;PMS5003;48653;51.742;-1.256;2024-03-02T06:21:09;4;2;
62054;PMS5003;48653;51.742;-1.256;2024-03-02T06:23:35;1;0;
62054;PMS5003;48653;51.742;-1.256;2024-03-02T06:26:00;1;1;
62054;PMS5003;48653;51.742;-1.256;2024-03-02T06:28:25;7;2;
62054;PMS5003;48653;51.742;-1.256;2024-03-02T06:30:50;1;1;
62054;PMS5003;48653;51.742;-1.256;2024-03-02T06:33:16;2;0;
62054;PMS5003;48653;51.742;-1.256;2024-03-02T06:35:41;4;0;
62054;PMS5003;48653;51.742;-1.256;2024-03-02T06:38:06;5;1;
62054;PMS5003;48653;51.742;-1.256;2024-03-02T06:40:31;7;1;
62054;PMS5003;48653;51.742;-1.256;2024-03-02T06:42:57;0;0;
62054;PMS5003;48653;51.742;-1.256;2024-03-02T06:45:22;0;0;
62054;PMS5003;48653;51.742;-1.256;2024-03-02T06:47:47;1;0;
62054;PMS5003;48653;51.742;-1.256;2024-03-02T06:50:12;2;1;
62054;PMS5003;48653;51.742;-1.256;2024-03-02T06:52:38;2;2;
62054;PMS5003;48653;51.742;-1.256;2024-03-02T06:55:02;0;0;
62054;PMS5003;48653;51.742;-1.256;2024-03-02T06:57:28;3;3;
62054;PMS5003;48653;51.742;-1.256;2024-03-02T06:59:53;2;1;
62054;PMS5003;48653;51.742;-1.256;2024-03-02T07:02:18;2;0;
62054;PMS5003;48653;51.742;-1.256;2024-03-02T07:04:43;2;0;
62054;PMS5003;48653;51.742;-1.256;2024-03-02T07:07:08;1;0;
62054;PMS5003;48653;51.742;-1.256;2024-03-02T07:09:33;1;1;
62054;PMS5003;48653;51.742;-1.256;2024-03-02T07:11:59;1;1;
62054;PMS5003;48653;51.742;-1.256;2024-03-02T07:14:23;1;1;
62054;PMS5003;48653;51.742;-1.256;2024-03-02T07:16:50;2;0;
62054;PMS5003;48653;51.742;-1.256;2024-03-02T07:19:14;2;0;
62054;PMS5003;48653;51.742;-1.256;2024-03-02T07:21:39;0;0;
62054;PMS5003;48653;51.742;-1.256;2024-03-02T07:24:04;1;0;
62054;PMS5003;48653;51.742;-1.256;2024-03-02T07:26:29;0;0;
62054;PMS5003;48653;51.742;-1.256;2024-03-02T07:28:54;2;0;
62054;PMS5003;48653;51.742;-1.256;2024-03-02T07:31:19;3;1;
62054;PMS5003;48653;51.742;-1.256;2024-03-02T07:33:44;1;1;
62054;PMS5003;48653;51.742;-1.256;2024-03-02T07:36:09;0;0;
62054;PMS5003;48653;51.742;-1.256;2024-03-02T07:38:34;2;0;
62054;PMS5003;48653;51.742;-1.256;2024-03-02T07:41:00;0;0;
62054;PMS5003;48653;51.742;-1.256;2024-03-02T07:43:25;3;0;
62054;PMS5003;48653;51.742;-1.256;2024-03-02T07:45:50;1;0;
62054;PMS5003;48653;51.742;-1.256;2024-03-02T07:48:15;0;0;
62054;PMS5003;48653;51.742;-1.256;2024-03-02T07:50:40;0;0;
62054;PMS5003;48653;51.742;-1.256;2024-03-02T07:53:06;0;0;
62054;PMS5003;48653;51.742;-1.256;2024-03-02T07:55:30;2;0;
62054;PMS5003;48653;51.742;-1.256;2024-03-02T07:57:55;0;0;
62054;PMS5003;48653;51.742;-1.256;2024-03-02T08:00:20;1;0;
62054;PMS5003;48653;51.742;-1.256;2024-03-02T08:02:45;0;0;
62054;PMS5003;48653;51.742;-1.256;2024-03-02T08:05:11;0;0;
62054;PMS5003;48653;51.742;-1.256;2024-03-02T08:07:36;0;0;
62054;PMS5003;48653;51.742;-1.256;2024-03-02T08:10:01;0;0;
62054;PMS5003;48653;51.742;-1.256;2024-03-02T08:12:27;0;0;
62054;PMS5003;48653;51.742;-1.256;2024-03-02T08:14:51;0;0;
62054;PMS5003;48653;51.742;-1.256;2024-03-02T08:17:16;0;0;
62054;PMS5003;48653;51.742;-1.256;2024-03-02T08:19:41;2;0;
62054;PMS5003;48653;51.742;-1.256;2024-03-02T08:22:06;0;0;
62054;PMS5003;48653;51.742;-1.256;2024-03-02T08:24:31;0;0;
62054;PMS5003;48653;51.742;-1.256;2024-03-02T08:26:56;0;0;
62054;PMS5003;48653;51.742;-1.256;2024-03-02T08:29:21;1;0;
62054;PMS5003;48653;51.742;-1.256;2024-03-02T08:31:47;1;0;
62054;PMS5003;48653;51.742;-1.256;2024-03-02T08:34:12;0;0;
62054;PMS5003;48653;51.742;-1.256;2024-03-02T08:36:37;0;0;
62054;PMS5003;48653;51.742;-1.256;2024-03-02T08:39:02;0;0;
62054;PMS5003;48653;51.742;-1.256;2024-03-02T08:41:27;1;0;
62054;PMS5003;48653;51.742;-1.256;2024-03-02T08:43:52;0;0;
62054;PMS5003;48653;51.742;-1.256;2024-03-02T08:46:17;0;0;
62054;PMS5003;48653;51.742;-1.256;2024-03-02T08:48:42;1;0;
62054;PMS5003;48653;51.742;-1.256;2024-03-02T08:51:07;0;0;
62054;PMS5003;48653;51.742;-1.256;2024-03-02T08:53:32;0;0;
62054;PMS5003;48653;51.742;-1.256;2024-03-02T08:55:57;0;0;
62054;PMS5003;48653;51.742;-1.256;2024-03-02T08:58:23;0;0;
62054;PMS5003;48653;51.742;-1.256;2024-03-02T09:00:48;0;0;
62054;PMS5003;48653;51.742;-1.256;2024-03-02T09:03:13;1;1;
62054;PMS5003;48653;51.742;-1.256;2024-03-02T09:05:38;0;0;
62054;PMS5003;48653;51.742;-1.256;2024-03-02T09:08:03;0;0;
62054;PMS5003;48653;51.742;-1.256;2024-03-02T09:10:28;0;0;
62054;PMS5003;48653;51.742;-1.256;2024-03-02T09:12:53;0;0;
62054;PMS5003;48653;51.742;-1.256;2024-03-02T09:15:18;0;0;
62054;PMS5003;48653;51.742;-1.256;2024-03-02T09:17:43;0;0;
62054;PMS5003;48653;51.742;-1.256;2024-03-02T09:20:09;0;0;
62054;PMS5003;48653;51.742;-1.256;2024-03-02T09:22:34;0;0;
62054;PMS5003;48653;51.742;-1.256;2024-03-02T09:24:59;0;0;
62054;PMS5003;48653;51.742;-1.256;2024-03-02T09:27:24;0;0;
62054;PMS5003;48653;51.742;-1.256;2024-03-02T09:29:49;1;1;
62054;PMS5003;48653;51.742;-1.256;2024-03-02T09:32:14;0;0;
62054;PMS5003;48653;51.742;-1.256;2024-03-02T09:34:39;0;0;
62054;PMS5003;48653;51.742;-1.256;2024-03-02T09:37:04;1;0;
62054;PMS5003;48653;51.742;-1.256;2024-03-02T09:39:29;0;0;
62054;PMS5003;48653;51.742;-1.256;2024-03-02T09:41:54;3;2;
62054;PMS5003;48653;51.742;-1.256;2024-03-02T09:44:20;2;2;
62054;PMS5003;48653;51.742;-1.256;2024-03-02T09:46:47;1;1;
62054;PMS5003;48653;51.742;-1.256;2024-03-02T09:49:10;2;2;
62054;PMS5003;48653;51.742;-1.256;2024-03-02T09:51:36;3;1;
62054;PMS5003;48653;51.742;-1.256;2024-03-02T09:54:02;0;0;
62054;PMS5003;48653;51.742;-1.256;2024-03-02T09:56:26;1;0;
62054;PMS5003;48653;51.742;-1.256;2024-03-02T09:58:51;0;0;
62054;PMS5003;48653;51.742;-1.256;2024-03-02T10:01:16;0;0;
62054;PMS5003;48653;51.742;-1.256;2024-03-02T10:03:41;1;0;
62054;PMS5003;48653;51.742;-1.256;2024-03-02T10:10:56;0;0;
62054;PMS5003;48653;51.742;-1.256;2024-03-02T10:13:21;0;0;
62054;PMS5003;48653;51.742;-1.256;2024-03-02T10:15:46;0;0;
62054;PMS5003;48653;51.742;-1.256;2024-03-02T10:18:12;0;0;
62054;PMS5003;48653;51.742;-1.256;2024-03-02T10:20:37;0;0;
62054;PMS5003;48653;51.742;-1.256;2024-03-02T10:23:10;0;0;
62054;PMS5003;48653;51.742;-1.256;2024-03-02T10:25:28;0;0;
62054;PMS5003;48653;51.742;-1.256;2024-03-02T10:27:52;0;0;
62054;PMS5003;48653;51.742;-1.256;2024-03-02T10:30:17;0;0;
62054;PMS5003;48653;51.742;-1.256;2024-03-02T10:32:42;0;0;
62054;PMS5003;48653;51.742;-1.256;2024-03-02T10:35:07;0;0;
62054;PMS5003;48653;51.742;-1.256;2024-03-02T10:37:32;0;0;
62054;PMS5003;48653;51.742;-1.256;2024-03-02T10:39:57;1;1;
62054;PMS5003;48653;51.742;-1.256;2024-03-02T10:42:22;1;1;
62054;PMS5003;48653;51.742;-1.256;2024-03-02T10:44:48;2;2;
62054;PMS5003;48653;51.742;-1.256;2024-03-02T10:47:13;1;1;
62054;PMS5003;48653;51.742;-1.256;2024-03-02T10:49:38;1;1;
62054;PMS5003;48653;51.742;-1.256;2024-03-02T10:52:03;1;1;
62054;PMS5003;48653;51.742;-1.256;2024-03-02T10:54:28;1;1;
62054;PMS5003;48653;51.742;-1.256;2024-03-02T10:56:53;0;0;
62054;PMS5003;48653;51.742;-1.256;2024-03-02T10:59:21;2;0;
62054;PMS5003;48653;51.742;-1.256;2024-03-02T11:01:43;1;0;
62054;PMS5003;48653;51.742;-1.256;2024-03-02T11:04:09;0;0;
62054;PMS5003;48653;51.742;-1.256;2024-03-02T11:06:33;0;0;
62054;PMS5003;48653;51.742;-1.256;2024-03-02T11:08:58;1;1;
62054;PMS5003;48653;51.742;-1.256;2024-03-02T11:11:25;1;1;
62054;PMS5003;48653;51.742;-1.256;2024-03-02T11:13:49;0;0;
62054;PMS5003;48653;51.742;-1.256;2024-03-02T11:16:16;2;2;
62054;PMS5003;48653;51.742;-1.256;2024-03-02T11:18:39;0;0;
62054;PMS5003;48653;51.742;-1.256;2024-03-02T11:21:04;1;1;
62054;PMS5003;48653;51.742;-1.256;2024-03-02T11:23:31;1;1;
62054;PMS5003;48653;51.742;-1.256;2024-03-02T11:25:54;3;1;
62054;PMS5003;48653;51.742;-1.256;2024-03-02T11:28:19;1;0;
62054;PMS5003;48653;51.742;-1.256;2024-03-02T11:30:49;1;1;
62054;PMS5003;48653;51.742;-1.256;2024-03-02T11:33:09;2;2;
62054;PMS5003;48653;51.742;-1.256;2024-03-02T11:35:34;0;0;
62054;PMS5003;48653;51.742;-1.256;2024-03-02T11:38:00;2;2;
62054;PMS5003;48653;51.742;-1.256;2024-03-02T11:40:24;0;0;
62054;PMS5003;48653;51.742;-1.256;2024-03-02T11:42:50;0;0;
62054;PMS5003;48653;51.742;-1.256;2024-03-02T11:45:16;0;0;
62054;PMS5003;48653;51.742;-1.256;2024-03-02T11:47:40;0;0;
62054;PMS5003;48653;51.742;-1.256;2024-03-02T11:50:07;1;1;
62054;PMS5003;48653;51.742;-1.256;2024-03-02T11:52:30;0;0;
62054;PMS5003;48653;51.742;-1.256;2024-03-02T11:54:59;0;0;
62054;PMS5003;48653;51.742;-1.256;2024-03-02T11:57:21;0;0;
62054;PMS5003;48653;51.742;-1.256;2024-03-02T11:59:45;1;1;
62054;PMS5003;48653;51.742;-1.256;2024-03-02T12:02:14;2;0;
62054;PMS5003;48653;51.742;-1.256;2024-03-02T12:04:36;2;2;
62054;PMS5003;48653;51.742;-1.256;2024-03-02T12:07:00;0;0;
62054;PMS5003;48653;51.742;-1.256;2024-03-02T12:09:26;1;1;
62054;PMS5003;48653;51.742;-1.256;2024-03-02T12:14:15;0;0;
62054;PMS5003;48653;51.742;-1.256;2024-03-02T12:16:43;0;0;
62054;PMS5003;48653;51.742;-1.256;2024-03-02T12:19:05;1;1;
62054;PMS5003;48653;51.742;-1.256;2024-03-02T12:21:31;0;0;
62054;PMS5003;48653;51.742;-1.256;2024-03-02T12:23:56;3;0;
62054;PMS5003;48653;51.742;-1.256;2024-03-02T12:26:21;0;0;
62054;PMS5003;48653;51.742;-1.256;2024-03-02T12:28:46;1;1;
62054;PMS5003;48653;51.742;-1.256;2024-03-02T12:31:11;0;0;
62054;PMS5003;48653;51.742;-1.256;2024-03-02T12:33:36;0;0;
62054;PMS5003;48653;51.742;-1.256;2024-03-02T12:36:01;0;0;
62054;PMS5003;48653;51.742;-1.256;2024-03-02T12:38:26;0;0;
62054;PMS5003;48653;51.742;-1.256;2024-03-02T12:40:51;4;1;
62054;PMS5003;48653;51.742;-1.256;2024-03-02T12:43:16;1;1;
62054;PMS5003;48653;51.742;-1.256;2024-03-02T12:45:41;1;1;
62054;PMS5003;48653;51.742;-1.256;2024-03-02T12:50:32;1;1;
62054;PMS5003;48653;51.742;-1.256;2024-03-02T12:55:22;0;0;
62054;PMS5003;48653;51.742;-1.256;2024-03-02T12:57:47;1;0;
62054;PMS5003;48653;51.742;-1.256;2024-03-02T13:00:12;0;0;
62054;PMS5003;48653;51.742;-1.256;2024-03-02T13:02:39;2;1;
62054;PMS5003;48653;51.742;-1.256;2024-03-02T13:05:02;0;0;
62054;PMS5003;48653;51.742;-1.256;2024-03-02T13:07:27;0;0;
62054;PMS5003;48653;51.742;-1.256;2024-03-02T13:09:52;1;1;
62054;PMS5003;48653;51.742;-1.256;2024-03-02T13:12:17;0;0;
62054;PMS5003;48653;51.742;-1.256;2024-03-02T13:14:42;3;2;
62054;PMS5003;48653;51.742;-1.256;2024-03-02T13:17:08;1;1;
62054;PMS5003;48653;51.742;-1.256;2024-03-02T13:19:32;1;1;
62054;PMS5003;48653;51.742;-1.256;2024-03-02T13:21:57;2;0;
62054;PMS5003;48653;51.742;-1.256;2024-03-02T13:24:22;0;0;
62054;PMS5003;48653;51.742;-1.256;2024-03-02T13:26:47;0;0;
62054;PMS5003;48653;51.742;-1.256;2024-03-02T13:29:12;1;0;
62054;PMS5003;48653;51.742;-1.256;2024-03-02T13:31:37;1;1;
62054;PMS5003;48653;51.742;-1.256;2024-03-02T13:34:02;0;0;
62054;PMS5003;48653;51.742;-1.256;2024-03-02T13:36:27;3;1;
62054;PMS5003;48653;51.742;-1.256;2024-03-02T13:38:53;2;0;
62054;PMS5003;48653;51.742;-1.256;2024-03-02T13:41:18;0;0;
62054;PMS5003;48653;51.742;-1.256;2024-03-02T13:43:43;0;0;
62054;PMS5003;48653;51.742;-1.256;2024-03-02T13:46:08;2;1;
62054;PMS5003;48653;51.742;-1.256;2024-03-02T13:48:33;0;0;
62054;PMS5003;48653;51.742;-1.256;2024-03-02T13:50:58;0;0;
62054;PMS5003;48653;51.742;-1.256;2024-03-02T13:53:23;2;1;
62054;PMS5003;48653;51.742;-1.256;2024-03-02T13:55:48;1;1;
62054;PMS5003;48653;51.742;-1.256;2024-03-02T13:58:13;1;1;
62054;PMS5003;48653;51.742;-1.256;2024-03-02T14:00:38;1;1;
62054;PMS5003;48653;51.742;-1.256;2024-03-02T14:03:04;1;1;
62054;PMS5003;48653;51.742;-1.256;2024-03-02T14:05:28;2;1;
62054;PMS5003;48653;51.742;-1.256;2024-03-02T14:07:53;2;2;
62054;PMS5003;48653;51.742;-1.256;2024-03-02T14:10:19;1;1;
62054;PMS5003;48653;51.742;-1.256;2024-03-02T14:12:43;4;1;
62054;PMS5003;48653;51.742;-1.256;2024-03-02T14:15:09;2;2;
62054;PMS5003;48653;51.742;-1.256;2024-03-02T14:17:34;1;1;
62054;PMS5003;48653;51.742;-1.256;2024-03-02T14:19:59;1;1;
62054;PMS5003;48653;51.742;-1.256;2024-03-02T14:22:24;0;0;
62054;PMS5003;48653;51.742;-1.256;2024-03-02T14:24:49;0;0;
62054;PMS5003;48653;51.742;-1.256;2024-03-02T14:27:16;1;1;
62054;PMS5003;48653;51.742;-1.256;2024-03-02T14:29:39;1;1;
62054;PMS5003;48653;51.742;-1.256;2024-03-02T14:32:04;2;2;
62054;PMS5003;48653;51.742;-1.256;2024-03-02T14:34:29;2;2;
62054;PMS5003;48653;51.742;-1.256;2024-03-02T14:36:54;3;3;
62054;PMS5003;48653;51.742;-1.256;2024-03-02T14:39:19;4;4;
62054;PMS5003;48653;51.742;-1.256;2024-03-02T14:41:44;6;5;
62054;PMS5003;48653;51.742;-1.256;2024-03-02T14:44:09;4;3;
62054;PMS5003;48653;51.742;-1.256;2024-03-02T14:46:34;3;3;
62054;PMS5003;48653;51.742;-1.256;2024-03-02T14:49:00;4;4;
62054;PMS5003;48653;51.742;-1.256;2024-03-02T14:51:25;3;3;
62054;PMS5003;48653;51.742;-1.256;2024-03-02T14:53:50;3;3;
62054;PMS5003;48653;51.742;-1.256;2024-03-02T14:56:16;5;5;
62054;PMS5003;48653;51.742;-1.256;2024-03-02T14:58:40;3;3;
62054;PMS5003;48653;51.742;-1.256;2024-03-02T15:01:06;7;7;
62054;PMS5003;48653;51.742;-1.256;2024-03-02T15:03:31;4;4;
62054;PMS5003;48653;51.742;-1.256;2024-03-02T15:05:56;8;7;
62054;PMS5003;48653;51.742;-1.256;2024-03-02T15:08:21;5;5;
62054;PMS5003;48653;51.742;-1.256;2024-03-02T15:10:46;8;7;
62054;PMS5003;48653;51.742;-1.256;2024-03-02T15:13:11;4;4;
62054;PMS5003;48653;51.742;-1.256;2024-03-02T15:15:36;6;5;
62054;PMS5003;48653;51.742;-1.256;2024-03-02T15:18:02;3;3;
62054;PMS5003;48653;51.742;-1.256;2024-03-02T15:20:27;2;2;
62054;PMS5003;48653;51.742;-1.256;2024-03-02T15:22:52;7;3;
62054;PMS5003;48653;51.742;-1.256;2024-03-02T15:25:18;3;2;
62054;PMS5003;48653;51.742;-1.256;2024-03-02T15:27:42;4;4;
62054;PMS5003;48653;51.742;-1.256;2024-03-02T15:30:07;4;4;
62054;PMS5003;48653;51.742;-1.256;2024-03-02T15:32:32;2;2;
62054;PMS5003;48653;51.742;-1.256;2024-03-02T15:34:57;5;4;
62054;PMS5003;48653;51.742;-1.256;2024-03-02T15:37:23;5;4;
62054;PMS5003;48653;51.742;-1.256;2024-03-02T15:39:48;2;2;
62054;PMS5003;48653;51.742;-1.256;2024-03-02T15:42:13;4;4;
62054;PMS5003;48653;51.742;-1.256;2024-03-02T15:44:38;4;4;
62054;PMS5003;48653;51.742;-1.256;2024-03-02T15:47:03;3;3;
62054;PMS5003;48653;51.742;-1.256;2024-03-02T15:49:28;3;3;
62054;PMS5003;48653;51.742;-1.256;2024-03-02T15:51:53;4;4;
62054;PMS5003;48653;51.742;-1.256;2024-03-02T15:54:18;6;4;
62054;PMS5003;48653;51.742;-1.256;2024-03-02T15:56:43;5;5;
62054;PMS5003;48653;51.742;-1.256;2024-03-02T15:59:08;2;2;
62054;PMS5003;48653;51.742;-1.256;2024-03-02T16:01:34;3;2;
62054;PMS5003;48653;51.742;-1.256;2024-03-02T16:03:59;3;3;
62054;PMS5003;48653;51.742;-1.256;2024-03-02T16:06:24;2;2;
62054;PMS5003;48653;51.742;-1.256;2024-03-02T16:08:49;4;4;
62054;PMS5003;48653;51.742;-1.256;2024-03-02T16:11:14;4;3;
62054;PMS5003;48653;51.742;-1.256;2024-03-02T16:13:39;4;3;
62054;PMS5003;48653;51.742;-1.256;2024-03-02T16:16:04;5;3;
62054;PMS5003;48653;51.742;-1.256;2024-03-02T16:18:30;7;7;
62054;PMS5003;48653;51.742;-1.256;2024-03-02T16:20:54;4;4;
62054;PMS5003;48653;51.742;-1.256;2024-03-02T16:23:19;3;3;
62054;PMS5003;48653;51.742;-1.256;2024-03-02T16:25:44;3;3;
62054;PMS5003;48653;51.742;-1.256;2024-03-02T16:28:09;2;2;
62054;PMS5003;48653;51.742;-1.256;2024-03-02T16:30:34;5;5;
62054;PMS5003;48653;51.742;-1.256;2024-03-02T16:33:00;4;4;
62054;PMS5003;48653;51.742;-1.256;2024-03-02T16:35:25;71;55;
62054;PMS5003;48653;51.742;-1.256;2024-03-02T16:37:51;49;40;